Terminal Aerodrome Forecast
Issued by NWS

Home | Current Version | Previous Version | Text Only | Print | Product List | Glossary Off
Versions: 1 2 3 4 5 6 7 8 9 10 11 12 13 14 15 16 17 18 19 20 21 22 23 24 25 26

316
FTUS43 KLOT 241137
TAFMDW
TAF
KMDW 241137Z 2412/2512 36011KT P6SM BKN015 BKN025
     FM241400 03012G18KT P6SM BKN022 BKN035
     FM242000 04011KT P6SM FEW030
     FM250100 04006KT P6SM SKC=

USA.gov is the U.S. government's official web portal to all federal, state and local government web resources and services.